sensor_id;sensor_type;location;lat;lon;timestamp;pressure;altitude;pressure_sealevel;temperature;humidity
64192;BME280;50497;50.720;-2.084;2023-03-20T00:00:46;102445.22;;;7.35;100.00
64192;BME280;50497;50.720;-2.084;2023-03-20T00:03:13;102455.88;;;7.35;100.00
64192;BME280;50497;50.720;-2.084;2023-03-20T00:05:39;102456.81;;;7.29;100.00
64192;BME280;50497;50.720;-2.084;2023-03-20T00:08:05;102468.34;;;7.27;100.00
64192;BME280;50497;50.720;-2.084;2023-03-20T00:10:36;102445.38;;;7.10;100.00
64192;BME280;50497;50.720;-2.084;2023-03-20T00:13:05;102467.47;;;7.26;100.00
64192;BME280;50497;50.720;-2.084;2023-03-20T00:15:35;102474.59;;;7.27;100.00
64192;BME280;50497;50.720;-2.084;2023-03-20T00:18:02;102479.94;;;7.24;100.00
64192;BME280;50497;50.720;-2.084;2023-03-20T00:20:28;102479.00;;;7.30;100.00
64192;BME280;50497;50.720;-2.084;2023-03-20T00:22:53;102479.91;;;7.26;100.00
64192;BME280;50497;50.720;-2.084;2023-03-20T00:25:21;102474.63;;;7.19;100.00
64192;BME280;50497;50.720;-2.084;2023-03-20T00:27:47;102464.94;;;7.03;100.00
64192;BME280;50497;50.720;-2.084;2023-03-20T00:30:32;102487.09;;;7.11;100.00
64192;BME280;50497;50.720;-2.084;2023-03-20T00:32:58;102502.19;;;7.11;100.00
64192;BME280;50497;50.720;-2.084;2023-03-20T00:35:25;102454.38;;;6.84;100.00
64192;BME280;50497;50.720;-2.084;2023-03-20T00:37:52;102492.38;;;7.19;100.00
64192;BME280;50497;50.720;-2.084;2023-03-20T00:40:18;102494.13;;;7.18;100.00
64192;BME280;50497;50.720;-2.084;2023-03-20T00:42:47;102507.50;;;7.12;100.00
64192;BME280;50497;50.720;-2.084;2023-03-20T00:45:17;102511.88;;;7.19;100.00
64192;BME280;50497;50.720;-2.084;2023-03-20T00:47:44;102508.28;;;7.27;100.00
64192;BME280;50497;50.720;-2.084;2023-03-20T00:50:17;102510.94;;;7.33;100.00
64192;BME280;50497;50.720;-2.084;2023-03-20T00:52:43;102514.47;;;7.29;100.00
64192;BME280;50497;50.720;-2.084;2023-03-20T00:55:09;102494.22;;;7.05;100.00
64192;BME280;50497;50.720;-2.084;2023-03-20T00:57:42;102502.16;;;7.12;100.00
64192;BME280;50497;50.720;-2.084;2023-03-20T01:00:16;102533.09;;;7.33;100.00
64192;BME280;50497;50.720;-2.084;2023-03-20T01:02:44;102534.88;;;7.39;100.00
64192;BME280;50497;50.720;-2.084;2023-03-20T01:05:10;102505.63;;;7.27;100.00
64192;BME280;50497;50.720;-2.084;2023-03-20T01:07:36;102533.06;;;7.47;100.00
64192;BME280;50497;50.720;-2.084;2023-03-20T01:10:02;102531.25;;;7.49;100.00
64192;BME280;50497;50.720;-2.084;2023-03-20T01:12:28;102494.91;;;7.40;100.00
64192;BME280;50497;50.720;-2.084;2023-03-20T01:14:56;102500.16;;;7.50;100.00
64192;BME280;50497;50.720;-2.084;2023-03-20T01:17:23;102532.00;;;7.70;100.00
64192;BME280;50497;50.720;-2.084;2023-03-20T01:19:49;102530.25;;;7.70;100.00
64192;BME280;50497;50.720;-2.084;2023-03-20T01:22:15;102523.13;;;7.71;100.00
64192;BME280;50497;50.720;-2.084;2023-03-20T01:24:42;102491.28;;;7.55;100.00
64192;BME280;50497;50.720;-2.084;2023-03-20T01:27:13;102530.25;;;7.69;100.00
64192;BME280;50497;50.720;-2.084;2023-03-20T01:29:39;102489.50;;;7.51;100.00
64192;BME280;50497;50.720;-2.084;2023-03-20T01:32:11;102523.16;;;7.65;100.00
64192;BME280;50497;50.720;-2.084;2023-03-20T01:34:37;102501.97;;;7.46;100.00
64192;BME280;50497;50.720;-2.084;2023-03-20T01:37:05;102499.31;;;7.45;100.00
64192;BME280;50497;50.720;-2.084;2023-03-20T01:39:34;102538.28;;;7.64;100.00
64192;BME280;50497;50.720;-2.084;2023-03-20T01:42:01;102504.59;;;7.54;100.00
64192;BME280;50497;50.720;-2.084;2023-03-20T01:44:28;102539.97;;;7.73;100.00
64192;BME280;50497;50.720;-2.084;2023-03-20T01:46:54;102539.09;;;7.75;100.00
64192;BME280;50497;50.720;-2.084;2023-03-20T01:51:48;102530.19;;;7.76;100.00
64192;BME280;50497;50.720;-2.084;2023-03-20T01:54:23;102514.28;;;7.67;100.00
64192;BME280;50497;50.720;-2.084;2023-03-20T01:56:55;102550.50;;;7.90;100.00
64192;BME280;50497;50.720;-2.084;2023-03-20T02:02:13;102535.38;;;7.93;100.00
64192;BME280;50497;50.720;-2.084;2023-03-20T02:04:43;102521.34;;;7.73;100.00
64192;BME280;50497;50.720;-2.084;2023-03-20T02:07:12;102524.00;;;7.70;100.00
64192;BME280;50497;50.720;-2.084;2023-03-20T02:09:41;102525.72;;;7.78;100.00
64192;BME280;50497;50.720;-2.084;2023-03-20T02:12:06;102494.66;;;7.76;100.00
64192;BME280;50497;50.720;-2.084;2023-03-20T02:14:32;102525.66;;;7.91;100.00
64192;BME280;50497;50.720;-2.084;2023-03-20T02:16:58;102508.03;;;7.70;100.00
64192;BME280;50497;50.720;-2.084;2023-03-20T02:28:22;102501.59;;;8.00;100.00
64192;BME280;50497;50.720;-2.084;2023-03-20T02:47:10;102508.28;;;8.49;100.00
64192;BME280;50497;50.720;-2.084;2023-03-20T02:56:16;102509.88;;;8.67;100.00
64192;BME280;50497;50.720;-2.084;2023-03-20T02:58:56;102511.59;;;8.69;100.00
64192;BME280;50497;50.720;-2.084;2023-03-20T03:01:29;102492.22;;;8.55;100.00
64192;BME280;50497;50.720;-2.084;2023-03-20T03:04:08;102511.56;;;8.74;100.00
64192;BME280;50497;50.720;-2.084;2023-03-20T03:06:38;102485.91;;;8.61;100.00
64192;BME280;50497;50.720;-2.084;2023-03-20T03:09:12;102506.13;;;8.82;100.00
64192;BME280;50497;50.720;-2.084;2023-03-20T03:11:44;102506.16;;;8.79;100.00
64192;BME280;50497;50.720;-2.084;2023-03-20T03:14:26;102506.13;;;8.82;100.00
64192;BME280;50497;50.720;-2.084;2023-03-20T03:16:55;102511.56;;;8.74;100.00
64192;BME280;50497;50.720;-2.084;2023-03-20T03:19:25;102520.38;;;8.79;100.00
64192;BME280;50497;50.720;-2.084;2023-03-20T03:21:52;102520.44;;;8.75;100.00
64192;BME280;50497;50.720;-2.084;2023-03-20T03:24:31;102539.13;;;8.75;100.00
64192;BME280;50497;50.720;-2.084;2023-03-20T03:26:58;102541.75;;;8.78;100.00
64192;BME280;50497;50.720;-2.084;2023-03-20T03:29:30;102539.28;;;8.59;100.00
64192;BME280;50497;50.720;-2.084;2023-03-20T03:31:59;102585.38;;;8.78;100.00
64192;BME280;50497;50.720;-2.084;2023-03-20T03:34:26;102589.91;;;8.68;100.00
64192;BME280;50497;50.720;-2.084;2023-03-20T03:37:17;102630.63;;;8.86;100.00
64192;BME280;50497;50.720;-2.084;2023-03-20T03:42:23;102687.63;;;8.85;100.00
64192;BME280;50497;50.720;-2.084;2023-03-20T03:45:02;102710.72;;;8.87;100.00
64192;BME280;50497;50.720;-2.084;2023-03-20T03:47:55;102701.91;;;8.76;100.00
64192;BME280;50497;50.720;-2.084;2023-03-20T03:50:26;102753.41;;;8.87;100.00
64192;BME280;50497;50.720;-2.084;2023-03-20T03:52:58;102781.88;;;8.93;100.00
64192;BME280;50497;50.720;-2.084;2023-03-20T03:55:26;102787.25;;;8.85;100.00
64192;BME280;50497;50.720;-2.084;2023-03-20T03:58:06;102816.59;;;8.92;100.00
64192;BME280;50497;50.720;-2.084;2023-03-20T04:00:33;102842.31;;;9.00;100.00
64192;BME280;50497;50.720;-2.084;2023-03-20T04:03:00;102828.19;;;8.83;100.00
64192;BME280;50497;50.720;-2.084;2023-03-20T04:05:29;102869.88;;;9.04;100.00
64192;BME280;50497;50.720;-2.084;2023-03-20T04:07:58;102866.38;;;8.94;100.00
64192;BME280;50497;50.720;-2.084;2023-03-20T04:10:24;102897.47;;;9.04;100.00
64192;BME280;50497;50.720;-2.084;2023-03-20T04:12:49;102893.09;;;8.90;100.00
64192;BME280;50497;50.720;-2.084;2023-03-20T04:15:15;102933.06;;;9.06;100.00
64192;BME280;50497;50.720;-2.084;2023-03-20T04:17:42;102941.13;;;9.00;100.00
64192;BME280;50497;50.720;-2.084;2023-03-20T04:20:08;102953.53;;;9.07;100.00
64192;BME280;50497;50.720;-2.084;2023-03-20T04:22:34;102980.22;;;9.11;100.00
64192;BME280;50497;50.720;-2.084;2023-03-20T04:25:00;102994.50;;;9.08;100.00
64192;BME280;50497;50.720;-2.084;2023-03-20T04:27:27;103006.03;;;9.10;100.00
64192;BME280;50497;50.720;-2.084;2023-03-20T04:29:53;102986.50;;;9.00;100.00
64192;BME280;50497;50.720;-2.084;2023-03-20T04:32:18;102996.34;;;8.89;100.00
64192;BME280;50497;50.720;-2.084;2023-03-20T04:34:44;103016.78;;;8.95;100.00
64192;BME280;50497;50.720;-2.084;2023-03-20T04:37:10;103052.31;;;9.14;100.00
64192;BME280;50497;50.720;-2.084;2023-03-20T04:39:35;103073.69;;;9.11;100.00
64192;BME280;50497;50.720;-2.084;2023-03-20T04:42:02;103081.69;;;9.15;100.00
64192;BME280;50497;50.720;-2.084;2023-03-20T04:44:28;103098.59;;;9.17;100.00
64192;BME280;50497;50.720;-2.084;2023-03-20T04:46:54;103098.59;;;9.13;100.00
64192;BME280;50497;50.720;-2.084;2023-03-20T04:49:19;103097.72;;;9.04;100.00
64192;BME280;50497;50.720;-2.084;2023-03-20T04:51:45;103125.31;;;9.13;100.00
64192;BME280;50497;50.720;-2.084;2023-03-20T04:54:10;103143.13;;;9.18;100.00
64192;BME280;50497;50.720;-2.084;2023-03-20T04:56:36;103159.13;;;9.20;100.00
64192;BME280;50497;50.720;-2.084;2023-03-20T04:59:01;103168.03;;;9.25;100.00
64192;BME280;50497;50.720;-2.084;2023-03-20T05:01:26;103157.38;;;9.08;100.00
64192;BME280;50497;50.720;-2.084;2023-03-20T05:03:52;103197.41;;;9.27;100.00
64192;BME280;50497;50.720;-2.084;2023-03-20T05:06:21;103176.06;;;9.11;100.00
64192;BME280;50497;50.720;-2.084;2023-03-20T05:08:47;103188.47;;;9.24;100.00
64192;BME280;50497;50.720;-2.084;2023-03-20T05:11:12;103205.44;;;9.17;100.00
64192;BME280;50497;50.720;-2.084;2023-03-20T05:13:38;103193.88;;;9.06;100.00
64192;BME280;50497;50.720;-2.084;2023-03-20T05:16:03;103225.00;;;9.18;100.00
64192;BME280;50497;50.720;-2.084;2023-03-20T05:18:29;103247.28;;;9.15;100.00
64192;BME280;50497;50.720;-2.084;2023-03-20T05:20:54;103239.25;;;9.14;100.00
64192;BME280;50497;50.720;-2.084;2023-03-20T05:23:20;103257.97;;;9.20;100.00
64192;BME280;50497;50.720;-2.084;2023-03-20T05:25:45;103267.75;;;9.16;100.00
64192;BME280;50497;50.720;-2.084;2023-03-20T05:28:10;103259.75;;;9.05;100.00
64192;BME280;50497;50.720;-2.084;2023-03-20T05:30:36;103274.88;;;9.11;100.00
64192;BME280;50497;50.720;-2.084;2023-03-20T05:33:01;103305.13;;;9.24;100.00
64192;BME280;50497;50.720;-2.084;2023-03-20T05:35:27;103318.50;;;9.30;100.00
64192;BME280;50497;50.720;-2.084;2023-03-20T05:37:53;103322.03;;;9.24;100.00
64192;BME280;50497;50.720;-2.084;2023-03-20T05:40:18;103320.28;;;9.16;100.00
64192;BME280;50497;50.720;-2.084;2023-03-20T05:42:44;103322.97;;;9.23;100.00
64192;BME280;50497;50.720;-2.084;2023-03-20T05:45:10;103342.53;;;9.21;100.00
64192;BME280;50497;50.720;-2.084;2023-03-20T05:47:36;103338.09;;;9.17;100.00
64192;BME280;50497;50.720;-2.084;2023-03-20T05:50:02;103347.00;;;9.19;100.00
64192;BME280;50497;50.720;-2.084;2023-03-20T05:52:28;103391.53;;;9.34;100.00
64192;BME280;50497;50.720;-2.084;2023-03-20T05:54:53;103381.72;;;9.25;100.00
64192;BME280;50497;50.720;-2.084;2023-03-20T05:57:19;103393.31;;;9.30;100.00
64192;BME280;50497;50.720;-2.084;2023-03-20T05:59:45;103407.53;;;9.31;100.00
64192;BME280;50497;50.720;-2.084;2023-03-20T06:02:11;103406.63;;;9.19;100.00
64192;BME280;50497;50.720;-2.084;2023-03-20T06:04:36;103403.97;;;9.19;100.00
64192;BME280;50497;50.720;-2.084;2023-03-20T06:07:03;103429.81;;;9.37;100.00
64192;BME280;50497;50.720;-2.084;2023-03-20T06:09:28;103415.56;;;9.18;100.00
64192;BME280;50497;50.720;-2.084;2023-03-20T06:11:54;103452.09;;;9.35;100.00
64192;BME280;50497;50.720;-2.084;2023-03-20T06:14:20;103475.22;;;9.36;100.00
64192;BME280;50497;50.720;-2.084;2023-03-20T06:16:46;103477.00;;;9.31;100.00
64192;BME280;50497;50.720;-2.084;2023-03-20T06:19:12;103466.31;;;9.28;100.00
64192;BME280;50497;50.720;-2.084;2023-03-20T06:21:37;103493.06;;;9.35;100.00
64192;BME280;50497;50.720;-2.084;2023-03-20T06:24:03;103497.53;;;9.36;100.00
64192;BME280;50497;50.720;-2.084;2023-03-20T06:26:28;103506.41;;;9.34;100.00
64192;BME280;50497;50.720;-2.084;2023-03-20T06:28:54;103521.53;;;9.38;100.00
64192;BME280;50497;50.720;-2.084;2023-03-20T06:31:19;103517.09;;;9.32;100.00
64192;BME280;50497;50.720;-2.084;2023-03-20T06:33:45;103506.38;;;9.23;100.00
64192;BME280;50497;50.720;-2.084;2023-03-20T06:36:10;103528.66;;;9.34;100.00
64192;BME280;50497;50.720;-2.084;2023-03-20T06:38:36;103534.91;;;9.38;100.00
64192;BME280;50497;50.720;-2.084;2023-03-20T06:41:02;103533.13;;;9.35;100.00
64192;BME280;50497;50.720;-2.084;2023-03-20T06:43:27;103559.88;;;9.41;100.00
64192;BME280;50497;50.720;-2.084;2023-03-20T06:45:53;103537.56;;;9.24;100.00
64192;BME280;50497;50.720;-2.084;2023-03-20T06:48:18;103574.09;;;9.37;100.00
64192;BME280;50497;50.720;-2.084;2023-03-20T06:50:50;103578.56;;;9.38;100.00
64192;BME280;50497;50.720;-2.084;2023-03-20T06:53:16;103590.16;;;9.40;100.00
64192;BME280;50497;50.720;-2.084;2023-03-20T06:55:42;103599.09;;;9.49;100.00
64192;BME280;50497;50.720;-2.084;2023-03-20T06:58:07;103578.53;;;9.31;100.00
64192;BME280;50497;50.720;-2.084;2023-03-20T07:00:33;103602.63;;;9.44;100.00
64192;BME280;50497;50.720;-2.084;2023-03-20T07:02:59;103607.97;;;9.48;100.00
64192;BME280;50497;50.720;-2.084;2023-03-20T07:05:24;103616.03;;;9.54;100.00
64192;BME280;50497;50.720;-2.084;2023-03-20T07:07:50;103602.66;;;9.43;100.00
64192;BME280;50497;50.720;-2.084;2023-03-20T07:10:16;103632.09;;;9.66;100.00
64192;BME280;50497;50.720;-2.084;2023-03-20T07:12:41;103645.47;;;9.61;100.00
64192;BME280;50497;50.720;-2.084;2023-03-20T07:15:08;103640.09;;;9.60;100.00
64192;BME280;50497;50.720;-2.084;2023-03-20T07:17:33;103636.53;;;9.61;100.00
64192;BME280;50497;50.720;-2.084;2023-03-20T07:20:00;103634.78;;;9.61;100.00
64192;BME280;50497;50.720;-2.084;2023-03-20T07:22:28;103620.50;;;9.61;100.00
64192;BME280;50497;50.720;-2.084;2023-03-20T07:24:56;103620.47;;;9.49;100.00
64192;BME280;50497;50.720;-2.084;2023-03-20T07:27:22;103640.09;;;9.66;100.00
64192;BME280;50497;50.720;-2.084;2023-03-20T07:29:48;103652.59;;;9.70;100.00
64192;BME280;50497;50.720;-2.084;2023-03-20T07:32:18;103643.72;;;9.71;100.00
64192;BME280;50497;50.720;-2.084;2023-03-20T07:34:45;103649.03;;;9.74;100.00
64192;BME280;50497;50.720;-2.084;2023-03-20T07:37:12;103634.78;;;9.69;100.00
64192;BME280;50497;50.720;-2.084;2023-03-20T07:39:38;103641.03;;;9.79;100.00
64192;BME280;50497;50.720;-2.084;2023-03-20T07:42:03;103643.72;;;9.77;100.00
64192;BME280;50497;50.720;-2.084;2023-03-20T07:44:29;103630.34;;;9.73;100.00
64192;BME280;50497;50.720;-2.084;2023-03-20T07:46:55;103629.44;;;9.75;100.00
64192;BME280;50497;50.720;-2.084;2023-03-20T07:49:21;103620.56;;;9.79;100.00
64192;BME280;50497;50.720;-2.084;2023-03-20T07:51:47;103615.19;;;9.75;100.00
64192;BME280;50497;50.720;-2.084;2023-03-20T07:54:13;103625.88;;;9.83;100.00
64192;BME280;50497;50.720;-2.084;2023-03-20T07:56:39;103621.47;;;9.85;100.00
64192;BME280;50497;50.720;-2.084;2023-03-20T07:59:06;103620.53;;;9.84;100.00
64192;BME280;50497;50.720;-2.084;2023-03-20T08:01:31;103613.41;;;9.88;100.00
64192;BME280;50497;50.720;-2.084;2023-03-20T08:03:57;103624.13;;;9.85;100.00
64192;BME280;50497;50.720;-2.084;2023-03-20T08:06:23;103614.34;;;9.93;100.00
64192;BME280;50497;50.720;-2.084;2023-03-20T08:08:48;103602.72;;;9.74;100.00
64192;BME280;50497;50.720;-2.084;2023-03-20T08:11:18;103617.91;;;9.92;100.00
64192;BME280;50497;50.720;-2.084;2023-03-20T08:13:44;103620.56;;;9.89;100.00
64192;BME280;50497;50.720;-2.084;2023-03-20T08:16:10;103629.50;;;9.97;100.00
64192;BME280;50497;50.720;-2.084;2023-03-20T08:18:35;103621.47;;;9.94;100.00
64192;BME280;50497;50.720;-2.084;2023-03-20T08:21:01;103620.59;;;9.98;100.00
64192;BME280;50497;50.720;-2.084;2023-03-20T08:23:26;103628.59;;;10.06;100.00
64192;BME280;50497;50.720;-2.084;2023-03-20T08:25:52;103624.16;;;10.03;100.00
64192;BME280;50497;50.720;-2.084;2023-03-20T08:28:18;103617.91;;;9.92;100.00
64192;BME280;50497;50.720;-2.084;2023-03-20T08:30:45;103625.94;;;10.10;100.00
64192;BME280;50497;50.720;-2.084;2023-03-20T08:33:16;103624.16;;;10.02;100.00
64192;BME280;50497;50.720;-2.084;2023-03-20T08:35:42;103591.16;;;9.96;100.00
64192;BME280;50497;50.720;-2.084;2023-03-20T08:38:15;103619.69;;;10.05;100.00
64192;BME280;50497;50.720;-2.084;2023-03-20T08:40:41;103627.75;;;10.14;100.00
64192;BME280;50497;50.720;-2.084;2023-03-20T08:43:06;103600.09;;;10.06;100.00
64192;BME280;50497;50.720;-2.084;2023-03-20T08:45:32;103620.59;;;10.20;100.00
64192;BME280;50497;50.720;-2.084;2023-03-20T08:48:01;103616.13;;;10.15;100.00
64192;BME280;50497;50.720;-2.084;2023-03-20T08:50:27;103605.44;;;10.06;100.00
64192;BME280;50497;50.720;-2.084;2023-03-20T08:52:52;103607.22;;;10.16;100.00
64192;BME280;50497;50.720;-2.084;2023-03-20T08:55:18;103577.78;;;9.93;100.00
64192;BME280;50497;50.720;-2.084;2023-03-20T08:57:44;103569.75;;;9.92;100.00
64192;BME280;50497;50.720;-2.084;2023-03-20T09:00:12;103608.13;;;10.22;100.00
64192;BME280;50497;50.720;-2.084;2023-03-20T09:02:41;103607.22;;;10.27;100.00
64192;BME280;50497;50.720;-2.084;2023-03-20T09:05:07;103588.47;;;10.09;100.00
64192;BME280;50497;50.720;-2.084;2023-03-20T09:07:33;103587.59;;;10.10;100.00
64192;BME280;50497;50.720;-2.084;2023-03-20T09:09:59;103574.22;;;10.04;100.00
64192;BME280;50497;50.720;-2.084;2023-03-20T09:12:25;103580.44;;;10.04;100.00
64192;BME280;50497;50.720;-2.084;2023-03-20T09:14:50;103583.13;;;10.10;100.00
64192;BME280;50497;50.720;-2.084;2023-03-20T09:17:15;103548.38;;;9.93;100.00
64192;BME280;50497;50.720;-2.084;2023-03-20T09:19:41;103569.75;;;10.10;100.00
64192;BME280;50497;50.720;-2.084;2023-03-20T09:22:12;103559.06;;;10.07;100.00
64192;BME280;50497;50.720;-2.084;2023-03-20T09:24:38;103558.19;;;10.08;100.00
64192;BME280;50497;50.720;-2.084;2023-03-20T09:27:03;103562.63;;;10.12;100.00
64192;BME280;50497;50.720;-2.084;2023-03-20T09:29:29;103552.81;;;10.04;100.00
64192;BME280;50497;50.720;-2.084;2023-03-20T09:31:55;103559.94;;;10.12;100.00
64192;BME280;50497;50.720;-2.084;2023-03-20T09:34:20;103524.28;;;9.92;100.00
64192;BME280;50497;50.720;-2.084;2023-03-20T09:36:50;103542.13;;;10.11;100.00
64192;BME280;50497;50.720;-2.084;2023-03-20T09:39:15;103532.31;;;10.09;100.00
64192;BME280;50497;50.720;-2.084;2023-03-20T09:41:46;103509.13;;;10.00;100.00
64192;BME280;50497;50.720;-2.084;2023-03-20T09:47:02;103524.28;;;10.13;100.00
64192;BME280;50497;50.720;-2.084;2023-03-20T09:50:27;103499.31;;;10.14;100.00
64192;BME280;50497;50.720;-2.084;2023-03-20T09:55:32;103503.75;;;10.18;100.00
64192;BME280;50497;50.720;-2.084;2023-03-20T09:58:04;103479.69;;;10.18;100.00
64192;BME280;50497;50.720;-2.084;2023-03-20T10:00:34;103508.22;;;10.41;100.00
64192;BME280;50497;50.720;-2.084;2023-03-20T10:03:04;103513.56;;;10.44;100.00
64192;BME280;50497;50.720;-2.084;2023-03-20T10:05:44;103505.56;;;10.32;100.00
64192;BME280;50497;50.720;-2.084;2023-03-20T10:08:13;103500.19;;;10.38;100.00
64192;BME280;50497;50.720;-2.084;2023-03-20T10:16:41;103485.03;;;10.37;100.00
64192;BME280;50497;50.720;-2.084;2023-03-20T10:22:26;103476.09;;;10.26;100.00
64192;BME280;50497;50.720;-2.084;2023-03-20T10:25:23;103477.84;;;10.48;100.00
64192;BME280;50497;50.720;-2.084;2023-03-20T10:27:56;103465.41;;;10.32;100.00
64192;BME280;50497;50.720;-2.084;2023-03-20T10:36:24;103468.09;;;10.23;100.00
64192;BME280;50497;50.720;-2.084;2023-03-20T10:42:16;103464.53;;;10.16;100.00
64192;BME280;50497;50.720;-2.084;2023-03-20T10:47:42;103483.22;;;10.30;100.00
64192;BME280;50497;50.720;-2.084;2023-03-20T10:50:18;103489.50;;;10.37;100.00
64192;BME280;50497;50.720;-2.084;2023-03-20T10:52:48;103463.63;;;10.25;100.00
64192;BME280;50497;50.720;-2.084;2023-03-20T10:55:19;103485.94;;;10.34;100.00
64192;BME280;50497;50.720;-2.084;2023-03-20T10:57:51;103492.16;;;10.35;100.00
64192;BME280;50497;50.720;-2.084;2023-03-20T11:00:22;103491.25;;;10.45;100.00
64192;BME280;50497;50.720;-2.084;2023-03-20T11:02:49;103496.59;;;10.47;100.00
64192;BME280;50497;50.720;-2.084;2023-03-20T11:05:30;103477.91;;;10.33;100.00
64192;BME280;50497;50.720;-2.084;2023-03-20T11:08:07;103474.31;;;10.37;100.00
64192;BME280;50497;50.720;-2.084;2023-03-20T11:10:35;103471.63;;;10.40;100.00
64192;BME280;50497;50.720;-2.084;2023-03-20T11:13:30;103478.78;;;10.43;100.00
64192;BME280;50497;50.720;-2.084;2023-03-20T11:18:48;103465.41;;;10.35;100.00
64192;BME280;50497;50.720;-2.084;2023-03-20T11:21:18;103453.81;;;10.27;100.00
64192;BME280;50497;50.720;-2.084;2023-03-20T11:23:44;103449.31;;;10.26;100.00
64192;BME280;50497;50.720;-2.084;2023-03-20T11:26:13;103436.88;;;10.22;100.00
64192;BME280;50497;50.720;-2.084;2023-03-20T11:28:54;103452.03;;;10.43;100.00
64192;BME280;50497;50.720;-2.084;2023-03-20T11:31:39;103452.91;;;10.28;100.00
64192;BME280;50497;50.720;-2.084;2023-03-20T11:34:30;103444.00;;;10.32;100.00
64192;BME280;50497;50.720;-2.084;2023-03-20T11:36:59;103432.41;;;10.28;100.00
64192;BME280;50497;50.720;-2.084;2023-03-20T11:39:31;103418.13;;;10.28;100.00
64192;BME280;50497;50.720;-2.084;2023-03-20T11:42:00;103411.00;;;10.25;100.00
64192;BME280;50497;50.720;-2.084;2023-03-20T11:47:17;103420.81;;;10.28;100.00
64192;BME280;50497;50.720;-2.084;2023-03-20T11:49:49;103424.38;;;10.36;100.00
64192;BME280;50497;50.720;-2.084;2023-03-20T11:52:44;103435.09;;;10.36;100.00
64192;BME280;50497;50.720;-2.084;2023-03-20T11:55:28;103435.03;;;10.44;100.00
64192;BME280;50497;50.720;-2.084;2023-03-20T11:57:59;103419.00;;;10.31;100.00
64192;BME280;50497;50.720;-2.084;2023-03-20T12:00:36;103438.63;;;10.38;100.00
64192;BME280;50497;50.720;-2.084;2023-03-20T12:06:01;103438.66;;;10.35;100.00
64192;BME280;50497;50.720;-2.084;2023-03-20T12:08:27;103440.41;;;10.42;100.00
64192;BME280;50497;50.720;-2.084;2023-03-20T12:11:16;103436.84;;;10.43;100.00
64192;BME280;50497;50.720;-2.084;2023-03-20T12:13:49;103451.09;;;10.51;100.00
64192;BME280;50497;50.720;-2.084;2023-03-20T12:16:18;103436.81;;;10.52;100.00
64192;BME280;50497;50.720;-2.084;2023-03-20T12:19:03;103444.84;;;10.52;100.00
64192;BME280;50497;50.720;-2.084;2023-03-20T12:21:49;103427.88;;;10.47;100.00
64192;BME280;50497;50.720;-2.084;2023-03-20T12:24:28;103434.06;;;10.65;100.00
64192;BME280;50497;50.720;-2.084;2023-03-20T12:29:57;103433.28;;;10.41;100.00
64192;BME280;50497;50.720;-2.084;2023-03-20T12:32:35;103437.69;;;10.58;100.00
64192;BME280;50497;50.720;-2.084;2023-03-20T12:35:12;103429.69;;;10.42;100.00
64192;BME280;50497;50.720;-2.084;2023-03-20T12:37:39;103435.03;;;10.48;100.00
64192;BME280;50497;50.720;-2.084;2023-03-20T12:40:10;103432.34;;;10.51;100.00
64192;BME280;50497;50.720;-2.084;2023-03-20T12:45:23;103418.09;;;10.48;100.00
64192;BME280;50497;50.720;-2.084;2023-03-20T12:48:05;103426.06;;;10.60;100.00
64192;BME280;50497;50.720;-2.084;2023-03-20T12:50:42;103427.94;;;10.44;100.00
64192;BME280;50497;50.720;-2.084;2023-03-20T12:58:31;103423.44;;;10.49;100.00
64192;BME280;50497;50.720;-2.084;2023-03-20T13:01:30;103424.22;;;10.68;100.00
64192;BME280;50497;50.720;-2.084;2023-03-20T13:07:06;103397.47;;;10.64;100.00
64192;BME280;50497;50.720;-2.084;2023-03-20T13:10:00;103385.00;;;10.60;100.00
64192;BME280;50497;50.720;-2.084;2023-03-20T13:12:57;103386.81;;;10.56;100.00
64192;BME280;50497;50.720;-2.084;2023-03-20T13:18:20;103360.00;;;10.61;100.00
64192;BME280;50497;50.720;-2.084;2023-03-20T13:20:54;103353.72;;;10.69;100.00
64192;BME280;50497;50.720;-2.084;2023-03-20T13:26:07;103318.06;;;10.63;100.00
64192;BME280;50497;50.720;-2.084;2023-03-20T13:28:40;103300.28;;;10.52;100.00
64192;BME280;50497;50.720;-2.084;2023-03-20T13:39:57;103258.41;;;10.41;100.00
64192;BME280;50497;50.720;-2.084;2023-03-20T13:42:29;103252.16;;;10.45;100.00
64192;BME280;50497;50.720;-2.084;2023-03-20T13:45:24;103246.81;;;10.45;100.00
64192;BME280;50497;50.720;-2.084;2023-03-20T13:47:48;103246.78;;;10.49;100.00
64192;BME280;50497;50.720;-2.084;2023-03-20T13:50:26;103253.81;;;10.63;100.00
64192;BME280;50497;50.720;-2.084;2023-03-20T14:01:55;103210.88;;;10.73;100.00
64192;BME280;50497;50.720;-2.084;2023-03-20T14:04:26;103191.31;;;10.64;100.00
64192;BME280;50497;50.720;-2.084;2023-03-20T14:06:57;103182.47;;;10.54;100.00
64192;BME280;50497;50.720;-2.084;2023-03-20T14:12:02;103191.28;;;10.71;100.00
64192;BME280;50497;50.720;-2.084;2023-03-20T14:14:49;103188.63;;;10.65;100.00
64192;BME280;50497;50.720;-2.084;2023-03-20T14:17:27;103191.22;;;10.78;100.00
64192;BME280;50497;50.720;-2.084;2023-03-20T14:19:54;103175.25;;;10.64;100.00
64192;BME280;50497;50.720;-2.084;2023-03-20T14:22:26;103148.69;;;10.41;100.00
64192;BME280;50497;50.720;-2.084;2023-03-20T14:25:03;103185.13;;;10.59;100.00
64192;BME280;50497;50.720;-2.084;2023-03-20T14:33:06;103170.88;;;10.53;100.00
64192;BME280;50497;50.720;-2.084;2023-03-20T14:35:40;103169.97;;;10.59;100.00
64192;BME280;50497;50.720;-2.084;2023-03-20T14:41:15;103130.91;;;10.37;100.00
64192;BME280;50497;50.720;-2.084;2023-03-20T14:54:51;103151.31;;;10.48;100.00
64192;BME280;50497;50.720;-2.084;2023-03-20T14:57:18;103148.50;;;10.61;100.00
64192;BME280;50497;50.720;-2.084;2023-03-20T14:59:51;103153.06;;;10.52;100.00
64192;BME280;50497;50.720;-2.084;2023-03-20T15:02:25;103142.38;;;10.52;100.00